Time;durP1;ratioP1;P1;durP2;ratioP2;P2;SDS_P1;SDS_P2;PMS_P1;PMS_P2;Temp;Humidity;BMP_temperature;BMP_pressure;BME280_temperature;BME280_humidity;BME280_pressure;Samples;Min_cycle;Max_cycle;Signal;HPM_P1;HPM_P2
2020/12/18 00:00:46;;;;;;;212.27;86.93;;;4.40;99.90;;;;;;5074801;28;20410;-82
2020/12/18 00:03:11;;;;;;;227.23;97.43;;;4.50;99.90;;;;;;5092550;28;20380;-82
2020/12/18 00:05:42;;;;;;;227.45;94.22;;;4.50;99.90;;;;;;5074328;28;20745;-83
2020/12/18 00:08:08;;;;;;;211.73;88.55;;;4.50;99.90;;;;;;5090880;28;20379;-82
2020/12/18 00:10:34;;;;;;;194.65;84.13;;;4.50;99.90;;;;;;5093307;28;20372;-82
2020/12/18 00:13:00;;;;;;;192.32;83.55;;;4.50;99.90;;;;;;5093094;28;20746;-82
2020/12/18 00:15:29;;;;;;;212.23;91.70;;;4.50;99.90;;;;;;5093092;28;20371;-82
2020/12/18 00:17:54;;;;;;;201.38;88.97;;;4.50;99.90;;;;;;5092371;28;20451;-82
2020/12/18 00:20:21;;;;;;;200.32;89.65;;;4.50;99.90;;;;;;5073811;28;20926;-82
2020/12/18 00:22:48;;;;;;;200.02;88.47;;;4.50;99.90;;;;;;5092577;28;20424;-81
2020/12/18 00:25:14;;;;;;;189.13;84.93;;;4.50;99.90;;;;;;5073753;28;20711;-81
2020/12/18 00:27:41;;;;;;;215.32;100.18;;;4.50;99.90;;;;;;5091869;28;20373;-81
2020/12/18 00:30:11;;;;;;;209.55;95.10;;;4.50;99.90;;;;;;5073440;28;20392;-81
2020/12/18 00:32:41;;;;;;;218.00;100.30;;;4.50;99.90;;;;;;5073057;28;20381;-81
2020/12/18 00:35:10;;;;;;;209.13;98.00;;;4.50;99.90;;;;;;5090002;28;20399;-80
2020/12/18 00:37:37;;;;;;;265.27;125.47;;;4.50;99.90;;;;;;5074572;28;20381;-81
2020/12/18 00:40:07;;;;;;;191.30;80.68;;;4.50;99.90;;;;;;5074394;28;20368;-81
2020/12/18 00:42:33;;;;;;;191.10;77.70;;;4.50;99.90;;;;;;5074717;28;20428;-80
2020/12/18 00:44:59;;;;;;;228.57;83.15;;;4.50;99.90;;;;;;5092932;28;20418;-80
2020/12/18 00:47:25;;;;;;;234.02;85.82;;;4.50;99.90;;;;;;5074660;28;20747;-80
2020/12/18 00:49:51;;;;;;;223.85;84.85;;;4.40;99.90;;;;;;5074641;28;20376;-80
2020/12/18 00:52:17;;;;;;;212.50;90.70;;;4.50;99.90;;;;;;5074603;28;20410;-80
2020/12/18 00:54:43;;;;;;;215.90;97.53;;;4.50;99.90;;;;;;5092887;28;20376;-79
2020/12/18 00:57:08;;;;;;;196.17;86.13;;;4.50;99.90;;;;;;5074507;28;20448;-81
2020/12/18 00:59:34;;;;;;;217.40;96.23;;;4.50;99.90;;;;;;5092672;28;20506;-81
2020/12/18 01:02:01;;;;;;;195.40;81.13;;;4.50;99.90;;;;;;5074230;28;20434;-81
2020/12/18 01:04:27;;;;;;;180.18;79.38;;;4.40;99.90;;;;;;5092701;28;20356;-81
2020/12/18 01:06:56;;;;;;;225.57;80.35;;;4.40;99.90;;;;;;5074462;28;20388;-80
2020/12/18 01:09:23;;;;;;;197.40;82.10;;;4.40;99.90;;;;;;5074519;28;20712;-81
2020/12/18 01:11:50;;;;;;;190.85;78.53;;;4.40;99.90;;;;;;5074366;28;20365;-81
2020/12/18 01:14:16;;;;;;;178.88;72.22;;;4.40;99.90;;;;;;5074420;28;20409;-80
2020/12/18 01:16:43;;;;;;;174.45;73.50;;;4.40;99.90;;;;;;5092117;28;20776;-81
2020/12/18 01:19:09;;;;;;;204.60;82.88;;;4.30;99.90;;;;;;5074112;28;20376;-81
2020/12/18 01:21:36;;;;;;;214.07;84.63;;;4.30;99.90;;;;;;5092420;28;20364;-81
2020/12/18 01:24:02;;;;;;;232.65;88.28;;;4.30;99.90;;;;;;5092200;28;20399;-80
2020/12/18 01:26:28;;;;;;;200.05;82.82;;;4.30;99.90;;;;;;5092383;28;20356;-80
2020/12/18 01:28:54;;;;;;;182.05;78.20;;;4.30;99.90;;;;;;5092347;28;20380;-81
2020/12/18 01:31:20;;;;;;;193.77;78.47;;;4.30;99.90;;;;;;5092200;28;20941;-81
2020/12/18 01:33:45;;;;;;;184.07;79.20;;;4.30;99.90;;;;;;5092398;28;20392;-81
2020/12/18 01:36:11;;;;;;;193.57;79.78;;;4.40;99.90;;;;;;5092280;28;20715;-81
2020/12/18 01:38:37;;;;;;;196.63;78.72;;;4.40;99.90;;;;;;5074178;28;20380;-81
2020/12/18 01:41:03;;;;;;;216.70;86.05;;;4.40;99.90;;;;;;5092228;28;20364;-81
2020/12/18 01:43:29;;;;;;;199.23;88.15;;;4.40;99.90;;;;;;5073920;28;20903;-81
2020/12/18 01:46:01;;;;;;;202.48;87.40;;;4.40;99.90;;;;;;5092196;28;20364;-81
2020/12/18 01:48:27;;;;;;;173.18;78.97;;;4.40;99.90;;;;;;5092093;28;20711;-80
2020/12/18 01:50:53;;;;;;;177.10;79.57;;;4.40;99.90;;;;;;5092216;28;20356;-81
2020/12/18 01:53:21;;;;;;;179.27;80.80;;;4.40;99.90;;;;;;5092029;28;20504;-81
2020/12/18 01:55:48;;;;;;;184.93;80.27;;;4.40;99.90;;;;;;5092113;28;20447;-81
2020/12/18 01:58:14;;;;;;;174.02;77.15;;;4.50;99.90;;;;;;5092067;28;20413;-81
2020/12/18 02:00:42;;;;;;;172.32;74.13;;;4.50;99.90;;;;;;5073921;28;20372;-81
2020/12/18 02:03:08;;;;;;;195.73;80.13;;;4.50;99.90;;;;;;5073805;28;20391;-80
2020/12/18 02:05:34;;;;;;;197.00;83.78;;;4.40;99.90;;;;;;5073974;28;20761;-80
2020/12/18 02:08:02;;;;;;;194.55;83.65;;;4.40;99.90;;;;;;5073776;28;20365;-80
2020/12/18 02:10:28;;;;;;;183.35;77.78;;;4.40;99.90;;;;;;5092209;28;20383;-81
2020/12/18 02:12:55;;;;;;;197.43;81.80;;;4.40;99.90;;;;;;5091937;28;20755;-81
2020/12/18 02:15:22;;;;;;;195.50;80.28;;;4.40;99.90;;;;;;5091850;28;20429;-81
2020/12/18 02:17:52;;;;;;;182.97;80.43;;;4.40;99.90;;;;;;5073710;28;20488;-81
2020/12/18 02:20:18;;;;;;;171.70;75.97;;;4.40;99.90;;;;;;5091867;28;20375;-81
2020/12/18 02:22:44;;;;;;;170.45;71.93;;;4.40;99.90;;;;;;5073611;28;20771;-82
2020/12/18 02:25:12;;;;;;;161.90;71.80;;;4.40;99.90;;;;;;5073737;28;20475;-82
2020/12/18 02:27:40;;;;;;;168.15;70.30;;;4.40;99.90;;;;;;5091750;28;20430;-82
2020/12/18 02:30:11;;;;;;;171.17;71.60;;;4.30;99.90;;;;;;5095026;28;20368;-82
2020/12/18 02:32:37;;;;;;;176.45;74.68;;;4.30;99.90;;;;;;5095578;28;20865;-82
2020/12/18 02:35:05;;;;;;;172.57;71.60;;;4.30;99.90;;;;;;5095332;28;20403;-82
2020/12/18 02:37:31;;;;;;;174.68;72.25;;;4.30;99.90;;;;;;5095489;28;20425;-82
2020/12/18 02:39:58;;;;;;;173.40;72.18;;;4.30;99.90;;;;;;5077219;28;20369;-82
2020/12/18 02:42:24;;;;;;;176.77;68.82;;;4.30;99.90;;;;;;5095387;28;20479;-82
2020/12/18 02:44:50;;;;;;;191.48;75.68;;;4.40;99.90;;;;;;5095298;28;20460;-81
2020/12/18 02:47:16;;;;;;;181.73;71.18;;;4.30;99.90;;;;;;5095310;28;20397;-81
2020/12/18 02:49:41;;;;;;;161.23;65.63;;;4.40;99.90;;;;;;5095154;28;21061;-81
2020/12/18 02:52:08;;;;;;;175.53;66.27;;;4.40;99.90;;;;;;5076906;28;20372;-81
2020/12/18 02:54:34;;;;;;;192.93;69.20;;;4.30;99.90;;;;;;5077012;28;20723;-81
2020/12/18 02:57:00;;;;;;;171.57;64.23;;;4.30;99.90;;;;;;5095033;28;20375;-81
2020/12/18 02:59:26;;;;;;;188.90;64.67;;;4.30;99.90;;;;;;5095026;28;20884;-81
2020/12/18 03:01:52;;;;;;;205.20;69.10;;;4.30;99.90;;;;;;5076588;28;20369;-81
2020/12/18 03:04:17;;;;;;;198.30;67.72;;;4.30;99.90;;;;;;5094928;28;20689;-81
2020/12/18 03:06:43;;;;;;;226.30;69.20;;;4.30;99.90;;;;;;5094926;28;20467;-81
2020/12/18 03:09:09;;;;;;;201.98;69.68;;;4.30;99.90;;;;;;5076611;28;20414;-81
2020/12/18 03:11:35;;;;;;;194.52;65.00;;;4.30;99.90;;;;;;5094825;28;20430;-81
2020/12/18 03:14:01;;;;;;;209.17;66.17;;;4.30;99.90;;;;;;5094598;28;20700;-81
2020/12/18 03:16:27;;;;;;;203.68;64.60;;;4.30;99.90;;;;;;5076541;28;20451;-81
2020/12/18 03:18:53;;;;;;;206.98;68.28;;;4.30;99.90;;;;;;5094717;28;20922;-81
2020/12/18 03:21:19;;;;;;;221.55;67.95;;;4.40;99.90;;;;;;5094588;28;20373;-80
2020/12/18 03:23:45;;;;;;;202.13;61.58;;;4.30;99.90;;;;;;5094548;28;20389;-80
2020/12/18 03:26:11;;;;;;;216.18;62.55;;;4.30;99.90;;;;;;5076293;28;20360;-81
2020/12/18 03:28:36;;;;;;;188.75;62.72;;;4.30;99.90;;;;;;5076366;28;21064;-81
2020/12/18 03:31:04;;;;;;;206.02;62.90;;;4.30;99.90;;;;;;5076303;28;20398;-81
2020/12/18 03:33:30;;;;;;;213.63;61.53;;;4.30;99.90;;;;;;5094181;28;20379;-81
2020/12/18 03:35:56;;;;;;;176.57;58.40;;;4.20;99.90;;;;;;5076210;28;20377;-81
2020/12/18 03:38:21;;;;;;;197.80;61.83;;;4.30;99.90;;;;;;5094166;28;20724;-82
2020/12/18 03:40:47;;;;;;;190.90;64.70;;;4.30;99.90;;;;;;5075478;28;20426;-82
2020/12/18 03:43:13;;;;;;;207.13;65.05;;;4.30;99.90;;;;;;5094086;28;20380;-82
2020/12/18 03:45:39;;;;;;;232.13;65.20;;;4.30;99.90;;;;;;5094165;28;20425;-82
2020/12/18 03:48:05;;;;;;;205.43;64.47;;;4.30;99.90;;;;;;5094019;28;20382;-82
2020/12/18 03:50:31;;;;;;;170.13;58.80;;;4.30;99.90;;;;;;5094035;28;20363;-82
2020/12/18 03:52:57;;;;;;;131.23;53.87;;;4.30;99.90;;;;;;5093978;28;20364;-82
2020/12/18 03:55:22;;;;;;;134.85;50.33;;;4.30;99.90;;;;;;5093908;28;20368;-82
2020/12/18 03:57:48;;;;;;;124.63;48.85;;;4.30;99.90;;;;;;5093809;28;20451;-82
2020/12/18 04:00:14;;;;;;;129.85;50.50;;;4.30;99.90;;;;;;5093866;28;20841;-82
2020/12/18 04:02:40;;;;;;;118.78;49.58;;;4.30;99.90;;;;;;5093743;28;20387;-82
2020/12/18 04:05:06;;;;;;;137.30;54.78;;;4.30;99.90;;;;;;5093702;28;20863;-82
2020/12/18 04:07:31;;;;;;;162.52;65.50;;;4.30;99.90;;;;;;5075439;28;20368;-80
2020/12/18 04:09:57;;;;;;;132.02;56.83;;;4.30;99.90;;;;;;5093783;28;20376;-80
2020/12/18 04:12:23;;;;;;;131.85;54.03;;;4.40;99.90;;;;;;5093645;28;20761;-80
2020/12/18 04:14:49;;;;;;;149.30;55.72;;;4.30;99.90;;;;;;5093557;28;20398;-81
2020/12/18 04:17:15;;;;;;;141.93;53.35;;;4.40;99.90;;;;;;5093460;28;20383;-81
2020/12/18 04:19:41;;;;;;;142.63;55.28;;;4.30;99.90;;;;;;5075302;28;20474;-81
2020/12/18 04:22:07;;;;;;;143.18;56.72;;;4.30;99.90;;;;;;5075062;28;20368;-81
2020/12/18 04:24:32;;;;;;;142.93;55.28;;;4.40;99.90;;;;;;5093303;28;20510;-81
2020/12/18 04:26:58;;;;;;;182.67;72.80;;;4.40;99.90;;;;;;5093314;28;20802;-81
2020/12/18 04:29:24;;;;;;;173.77;68.93;;;4.30;99.90;;;;;;5093240;28;20380;-81
2020/12/18 04:31:50;;;;;;;184.87;76.07;;;4.30;99.90;;;;;;5074955;28;20851;-81
2020/12/18 04:34:16;;;;;;;178.10;73.43;;;4.30;99.90;;;;;;5074848;28;20467;-82
2020/12/18 04:36:41;;;;;;;189.43;80.13;;;4.30;99.90;;;;;;5093189;28;20367;-81
2020/12/18 04:39:07;;;;;;;185.77;72.80;;;4.30;99.90;;;;;;5093059;28;20816;-82
2020/12/18 04:41:33;;;;;;;152.83;62.50;;;4.30;99.90;;;;;;5093040;28;20382;-82
2020/12/18 04:43:59;;;;;;;149.30;54.92;;;4.40;99.90;;;;;;5074747;28;20388;-82
2020/12/18 04:46:28;;;;;;;134.68;56.38;;;4.30;99.90;;;;;;5092970;28;20357;-82
2020/12/18 04:48:54;;;;;;;120.43;48.85;;;4.40;99.90;;;;;;5074741;28;20369;-82
2020/12/18 04:51:22;;;;;;;129.82;55.20;;;4.40;99.90;;;;;;5074424;28;20372;-82
2020/12/18 04:53:50;;;;;;;134.43;58.88;;;4.30;99.90;;;;;;5074045;28;20421;-82
2020/12/18 04:56:21;;;;;;;127.20;54.23;;;4.40;99.90;;;;;;5092730;28;20460;-84
2020/12/18 04:58:50;;;;;;;119.75;53.00;;;4.40;99.90;;;;;;5074672;28;20456;-83
2020/12/18 05:01:24;;;;;;;116.68;48.72;;;4.40;99.90;;;;;;5074634;28;20406;-83
2020/12/18 05:03:51;;;;;;;126.20;51.85;;;4.40;99.90;;;;;;5092720;28;20388;-82
2020/12/18 05:06:17;;;;;;;121.57;51.17;;;4.40;99.90;;;;;;5074559;28;20447;-82
2020/12/18 05:08:43;;;;;;;118.38;50.58;;;4.40;99.90;;;;;;5092682;28;20388;-82
2020/12/18 05:11:25;;;;;;;128.05;54.75;;;4.40;99.90;;;;;;5092991;28;20375;-82
2020/12/18 05:13:52;;;;;;;121.77;52.23;;;4.40;99.90;;;;;;5092555;28;20433;-82
2020/12/18 05:16:23;;;;;;;118.25;53.47;;;4.50;99.90;;;;;;5074457;28;20475;-82
2020/12/18 05:18:49;;;;;;;105.60;49.13;;;4.50;99.90;;;;;;5092555;28;20451;-82
2020/12/18 05:21:17;;;;;;;98.23;45.23;;;4.50;99.90;;;;;;5092404;28;20368;-81
2020/12/18 05:23:46;;;;;;;106.97;49.22;;;4.40;99.90;;;;;;5092370;28;20384;-82
2020/12/18 05:26:14;;;;;;;116.20;52.25;;;4.50;99.90;;;;;;5074379;28;20459;-81
2020/12/18 05:28:45;;;;;;;117.80;52.03;;;4.50;99.90;;;;;;5074234;28;20971;-82
2020/12/18 05:31:19;;;;;;;119.32;53.95;;;4.40;99.90;;;;;;5092238;28;20360;-82
2020/12/18 05:33:48;;;;;;;124.38;54.63;;;4.50;99.90;;;;;;5092187;28;20391;-83
2020/12/18 05:36:14;;;;;;;138.20;61.58;;;4.50;99.90;;;;;;5074166;28;20373;-83
2020/12/18 05:38:41;;;;;;;241.43;71.13;;;4.50;99.90;;;;;;5092203;28;20451;-81
2020/12/18 05:41:08;;;;;;;119.60;51.92;;;4.50;99.90;;;;;;5092122;28;20452;-82
2020/12/18 05:43:42;;;;;;;113.07;50.73;;;4.40;99.90;;;;;;5092191;28;20712;-82
2020/12/18 05:46:26;;;;;;;101.93;47.72;;;4.40;99.90;;;;;;5092206;28;20534;-82
2020/12/18 05:49:01;;;;;;;103.88;47.40;;;4.40;99.90;;;;;;5092172;28;20384;-82
2020/12/18 05:51:37;;;;;;;110.93;52.67;;;4.40;99.90;;;;;;5092196;28;20768;-82
2020/12/18 05:54:11;;;;;;;114.53;53.85;;;4.40;99.90;;;;;;5073959;28;20421;-83
2020/12/18 05:56:38;;;;;;;124.70;55.80;;;4.40;99.90;;;;;;5091955;28;20376;-83
2020/12/18 05:59:22;;;;;;;143.45;62.00;;;4.40;99.90;;;;;;5092062;28;20898;-83
2020/12/18 06:01:51;;;;;;;156.97;74.03;;;4.50;99.90;;;;;;5073871;28;20441;-83
2020/12/18 06:04:24;;;;;;;144.48;69.68;;;4.40;99.90;;;;;;5094185;28;20416;-83
2020/12/18 06:06:51;;;;;;;133.32;58.55;;;4.40;99.90;;;;;;5095986;28;20832;-82
2020/12/18 06:09:22;;;;;;;131.15;56.60;;;4.40;99.90;;;;;;5095899;28;20388;-82
2020/12/18 06:11:48;;;;;;;133.43;53.33;;;4.40;99.90;;;;;;5077738;28;20896;-82
2020/12/18 06:14:18;;;;;;;136.13;53.22;;;4.30;99.90;;;;;;5095913;28;20404;-82
2020/12/18 06:16:48;;;;;;;146.15;57.92;;;4.40;99.90;;;;;;5077663;28;20387;-82
2020/12/18 06:19:17;;;;;;;118.78;50.75;;;4.30;99.90;;;;;;5077583;28;20368;-82
2020/12/18 06:21:57;;;;;;;135.32;60.72;;;4.40;99.90;;;;;;5077536;28;20402;-82
2020/12/18 06:24:24;;;;;;;126.53;63.70;;;4.40;99.90;;;;;;5077474;28;20376;-82
2020/12/18 06:26:55;;;;;;;138.23;74.22;;;4.40;99.90;;;;;;5077327;28;20368;-81
2020/12/18 06:29:23;;;;;;;139.65;76.60;;;4.40;99.90;;;;;;5095536;28;20361;-82
2020/12/18 06:31:49;;;;;;;127.72;70.07;;;4.50;99.90;;;;;;5077323;28;20364;-81
2020/12/18 06:34:26;;;;;;;120.60;64.38;;;4.40;99.90;;;;;;5095402;28;20404;-82
2020/12/18 06:36:55;;;;;;;133.93;67.32;;;4.40;99.90;;;;;;5095366;28;20368;-82
2020/12/18 06:39:32;;;;;;;122.43;70.30;;;4.50;99.90;;;;;;5095396;28;20383;-81
2020/12/18 06:42:17;;;;;;;112.75;61.33;;;4.50;99.90;;;;;;5095275;28;20851;-81
2020/12/18 06:44:48;;;;;;;111.82;58.20;;;4.50;99.90;;;;;;5077103;28;20873;-82
2020/12/18 06:47:16;;;;;;;122.50;64.78;;;4.50;99.90;;;;;;5076981;28;20372;-82
2020/12/18 06:50:03;;;;;;;149.98;84.10;;;4.50;99.90;;;;;;5077020;28;20451;-83
2020/12/18 06:52:54;;;;;;;112.27;59.07;;;4.50;99.90;;;;;;5095074;28;20420;-83
2020/12/18 06:55:26;;;;;;;276.77;164.48;;;4.50;99.90;;;;;;5095091;28;20417;-83
2020/12/18 06:58:07;;;;;;;231.05;111.10;;;4.50;99.90;;;;;;5095014;28;20368;-83
2020/12/18 07:00:37;;;;;;;122.60;49.50;;;4.60;99.90;;;;;;5094841;28;20368;-80
2020/12/18 07:03:03;;;;;;;141.00;59.90;;;4.50;99.90;;;;;;5094786;28;20384;-82
2020/12/18 07:05:39;;;;;;;131.20;62.55;;;4.60;99.90;;;;;;5094946;28;20371;-82
2020/12/18 07:08:10;;;;;;;124.38;62.55;;;4.60;99.90;;;;;;5076637;28;20372;-82
2020/12/18 07:10:41;;;;;;;130.88;67.30;;;4.60;99.90;;;;;;5076877;28;20440;-83
2020/12/18 07:13:15;;;;;;;268.70;114.23;;;4.60;99.90;;;;;;5094812;28;20472;-82
2020/12/18 07:15:44;;;;;;;145.80;80.00;;;4.60;99.90;;;;;;5075488;28;20376;-82
2020/12/18 07:18:26;;;;;;;137.18;71.28;;;4.60;99.90;;;;;;5076524;28;20692;-83
2020/12/18 07:21:00;;;;;;;152.27;81.97;;;4.50;99.90;;;;;;5094508;28;20368;-83
2020/12/18 07:23:28;;;;;;;146.30;76.63;;;4.50;99.90;;;;;;5076375;28;20782;-83
2020/12/18 07:25:57;;;;;;;168.20;83.75;;;4.50;99.90;;;;;;5094518;28;20365;-82
2020/12/18 07:28:25;;;;;;;154.23;82.90;;;4.50;99.90;;;;;;5076360;28;20364;-83
2020/12/18 07:30:52;;;;;;;172.98;89.80;;;4.50;99.90;;;;;;5094361;28;20402;-82
2020/12/18 07:33:19;;;;;;;239.13;138.90;;;4.50;99.90;;;;;;5076029;28;20383;-81
2020/12/18 07:35:50;;;;;;;160.00;70.43;;;4.50;99.90;;;;;;5094339;28;20780;-81
2020/12/18 07:38:27;;;;;;;164.80;77.07;;;4.40;99.90;;;;;;5093445;28;20446;-82
2020/12/18 07:40:57;;;;;;;158.07;72.33;;;4.40;99.90;;;;;;5076142;28;20368;-82
2020/12/18 07:43:27;;;;;;;194.13;93.72;;;4.40;99.90;;;;;;5094223;28;20916;-81
2020/12/18 07:45:58;;;;;;;190.25;96.95;;;4.40;99.90;;;;;;5075990;28;20365;-83
2020/12/18 07:48:27;;;;;;;168.13;93.90;;;4.40;99.90;;;;;;5076029;28;20410;-82
2020/12/18 07:51:05;;;;;;;199.77;94.40;;;4.50;99.90;;;;;;5093999;28;20848;-83
2020/12/18 07:53:35;;;;;;;209.27;107.70;;;4.50;99.90;;;;;;5075774;28;20372;-83
2020/12/18 07:56:09;;;;;;;233.88;119.13;;;4.50;99.90;;;;;;5075799;28;20384;-82
2020/12/18 07:58:48;;;;;;;289.75;154.30;;;4.50;99.90;;;;;;5075690;28;20365;-82
2020/12/18 08:01:19;;;;;;;297.57;157.03;;;4.50;99.90;;;;;;5093740;28;20431;-80
2020/12/18 08:03:58;;;;;;;301.90;171.70;;;4.50;99.90;;;;;;5075533;28;21247;-82
2020/12/18 08:06:25;;;;;;;238.95;136.52;;;4.50;99.90;;;;;;5093624;28;20408;-82
2020/12/18 08:08:57;;;;;;;229.20;137.07;;;4.50;99.90;;;;;;5075481;28;20851;-82
2020/12/18 08:11:25;;;;;;;198.75;109.13;;;4.50;99.90;;;;;;5094176;28;20381;-81
2020/12/18 08:13:51;;;;;;;182.55;103.13;;;4.50;99.90;;;;;;5093595;28;21253;-81
2020/12/18 08:16:19;;;;;;;209.23;123.97;;;4.50;99.90;;;;;;5075421;28;20364;-80
2020/12/18 08:18:47;;;;;;;200.75;124.38;;;4.50;99.90;;;;;;5074766;28;20441;-81
2020/12/18 08:21:13;;;;;;;190.40;112.35;;;4.50;99.90;;;;;;5093068;28;20479;-80
2020/12/18 08:23:45;;;;;;;206.38;109.03;;;4.50;99.90;;;;;;5093350;28;20392;-80
2020/12/18 08:26:12;;;;;;;267.17;116.57;;;4.60;99.90;;;;;;5074972;28;20369;-81
2020/12/18 08:28:40;;;;;;;170.37;90.67;;;4.60;99.90;;;;;;5075031;28;20374;-80
2020/12/18 08:31:10;;;;;;;140.13;71.37;;;4.50;99.90;;;;;;5093200;28;20443;-82
2020/12/18 08:33:45;;;;;;;234.65;133.45;;;4.60;99.90;;;;;;5092358;28;20368;-79
2020/12/18 08:36:13;;;;;;;164.52;102.32;;;4.60;99.90;;;;;;5074265;28;20859;-80
2020/12/18 08:38:39;;;;;;;131.73;80.80;;;4.80;99.90;;;;;;5091969;28;20373;-84
2020/12/18 08:41:05;;;;;;;1999.90;931.00;;;5.10;99.90;;;;;;5074166;28;20815;-78
2020/12/18 08:43:30;;;;;;;1511.45;904.95;;;5.20;99.90;;;;;;5091204;28;20755;-76
2020/12/18 08:45:57;;;;;;;312.95;216.65;;;5.80;99.90;;;;;;5090396;28;20843;-80
2020/12/18 08:48:26;;;;;;;144.10;81.90;;;6.20;99.90;;;;;;5091491;28;20793;-80
2020/12/18 08:51:02;;;;;;;321.10;178.38;;;5.70;99.90;;;;;;5091929;28;20906;-81
2020/12/18 08:53:35;;;;;;;166.93;92.97;;;5.60;99.90;;;;;;5092270;28;20372;-81
2020/12/18 08:56:09;;;;;;;150.32;74.60;;;5.30;99.90;;;;;;5092230;28;20448;-81
2020/12/18 08:58:34;;;;;;;216.80;93.85;;;5.10;99.90;;;;;;5090096;28;20403;-80
2020/12/18 09:01:01;;;;;;;140.23;76.43;;;5.20;99.90;;;;;;5091737;28;20392;-81
2020/12/18 09:03:37;;;;;;;134.57;65.03;;;5.20;99.90;;;;;;5092405;28;20381;-81
2020/12/18 09:06:11;;;;;;;121.00;60.70;;;5.10;99.90;;;;;;5108287;28;20451;-80
2020/12/18 09:08:37;;;;;;;135.23;74.15;;;4.90;99.90;;;;;;5092547;28;20360;-80
2020/12/18 09:11:03;;;;;;;155.00;90.30;;;4.90;99.90;;;;;;5092838;28;20510;-80
2020/12/18 09:13:30;;;;;;;138.05;77.50;;;5.00;99.90;;;;;;5092381;28;20806;-78
2020/12/18 09:16:02;;;;;;;135.07;70.97;;;5.00;99.90;;;;;;5108164;28;20425;-79
2020/12/18 09:18:50;;;;;;;177.45;97.13;;;4.90;99.90;;;;;;5092506;28;20455;-79
2020/12/18 09:21:18;;;;;;;181.68;93.57;;;4.90;99.90;;;;;;5092397;28;20375;-79
2020/12/18 09:23:48;;;;;;;186.07;114.28;;;5.00;99.90;;;;;;5107876;28;20392;-79
2020/12/18 09:26:24;;;;;;;148.57;76.50;;;5.00;99.90;;;;;;5092201;28;20365;-79
2020/12/18 09:28:50;;;;;;;118.47;57.20;;;5.00;99.90;;;;;;5092338;28;20834;-78
2020/12/18 09:31:16;;;;;;;175.25;100.35;;;5.00;99.90;;;;;;5092279;28;20858;-81
2020/12/18 09:33:42;;;;;;;198.30;118.63;;;5.00;99.90;;;;;;5092027;28;20384;-81
2020/12/18 09:36:09;;;;;;;262.58;157.32;;;5.10;99.90;;;;;;5074051;28;20789;-80
2020/12/18 09:38:46;;;;;;;239.15;145.68;;;5.10;99.90;;;;;;5073318;28;20862;-81
2020/12/18 09:41:15;;;;;;;142.63;86.40;;;5.10;99.90;;;;;;5092121;28;20380;-81
2020/12/18 09:43:42;;;;;;;148.20;84.75;;;5.10;99.90;;;;;;5107599;28;20717;-82
2020/12/18 09:46:11;;;;;;;154.25;80.93;;;5.10;99.90;;;;;;5073744;28;20398;-82
2020/12/18 09:48:42;;;;;;;190.03;104.40;;;5.00;99.90;;;;;;5073939;28;20544;-82
2020/12/18 09:51:08;;;;;;;154.97;88.67;;;5.10;99.90;;;;;;5108227;28;20360;-81
2020/12/18 09:53:34;;;;;;;239.60;149.98;;;5.20;99.90;;;;;;5091880;28;20376;-81
2020/12/18 09:56:00;;;;;;;182.07;115.78;;;5.20;99.90;;;;;;5073939;28;20429;-82
2020/12/18 09:58:26;;;;;;;165.75;95.85;;;5.30;99.90;;;;;;5092071;28;20413;-81
2020/12/18 10:00:52;;;;;;;130.40;75.45;;;5.30;99.90;;;;;;5091886;28;20770;-81
2020/12/18 10:03:18;;;;;;;125.20;68.72;;;5.30;99.90;;;;;;5073240;28;20392;-82
2020/12/18 10:05:45;;;;;;;147.05;56.35;;;5.40;99.90;;;;;;5073753;28;20865;-81
2020/12/18 10:08:11;;;;;;;113.63;56.33;;;6.00;99.90;;;;;;5073918;28;20372;-80
2020/12/18 10:10:37;;;;;;;148.60;75.73;;;5.70;99.90;;;;;;5073950;28;20427;-80
2020/12/18 10:13:03;;;;;;;101.80;53.00;;;6.00;99.90;;;;;;5091933;28;20400;-80
2020/12/18 10:15:29;;;;;;;101.95;56.97;;;5.90;99.90;;;;;;5091625;28;20364;-81
2020/12/18 10:17:55;;;;;;;119.65;65.85;;;5.80;99.90;;;;;;5091874;28;20391;-83
2020/12/18 10:20:21;;;;;;;118.20;61.22;;;5.80;99.90;;;;;;5073524;28;20415;-81
2020/12/18 10:22:46;;;;;;;118.65;69.97;;;5.80;99.90;;;;;;5073590;28;20415;-79
2020/12/18 10:25:12;;;;;;;120.93;73.13;;;5.80;99.90;;;;;;5073659;28;20376;-80
2020/12/18 10:27:38;;;;;;;114.40;58.30;;;5.80;99.90;;;;;;5073653;28;20421;-80
2020/12/18 10:30:06;;;;;;;118.50;62.83;;;5.80;99.90;;;;;;5091815;28;20421;-81
2020/12/18 10:32:33;;;;;;;111.47;56.90;;;5.80;99.90;;;;;;5073699;28;20723;-80
2020/12/18 10:34:59;;;;;;;95.68;54.58;;;5.80;99.90;;;;;;5088749;28;20481;-79
2020/12/18 10:37:26;;;;;;;105.60;56.23;;;6.20;99.90;;;;;;5090930;28;20417;-82
2020/12/18 10:39:52;;;;;;;111.65;58.00;;;6.00;99.90;;;;;;5072961;28;20368;-82
2020/12/18 10:42:18;;;;;;;121.32;62.70;;;6.10;99.90;;;;;;5072494;28;20360;-80
2020/12/18 10:44:44;;;;;;;128.93;70.57;;;6.00;99.90;;;;;;5073153;28;20371;-81
2020/12/18 10:47:10;;;;;;;112.80;57.63;;;6.00;99.90;;;;;;5091502;28;20371;-79
2020/12/18 10:49:36;;;;;;;116.75;62.53;;;5.90;99.90;;;;;;5072703;28;20369;-82
2020/12/18 10:52:02;;;;;;;106.80;55.90;;;5.90;99.90;;;;;;5075679;28;20731;-80
2020/12/18 10:54:31;;;;;;;106.50;60.50;;;5.90;99.90;;;;;;5076441;28;20726;-80
2020/12/18 10:56:58;;;;;;;126.88;73.50;;;5.80;99.90;;;;;;5095193;28;20364;-80
2020/12/18 10:59:33;;;;;;;122.53;66.35;;;5.80;99.90;;;;;;5076931;28;20453;-81
2020/12/18 11:01:59;;;;;;;141.20;89.75;;;5.90;99.90;;;;;;5094755;28;20395;-80
2020/12/18 11:04:26;;;;;;;204.05;132.98;;;5.90;99.90;;;;;;5094420;28;20393;-80
2020/12/18 11:06:52;;;;;;;315.73;229.20;;;5.90;99.90;;;;;;5094742;28;20367;-81
2020/12/18 11:09:19;;;;;;;235.73;156.73;;;5.90;99.90;;;;;;5094172;28;20380;-80
2020/12/18 11:11:48;;;;;;;169.98;108.40;;;5.90;99.90;;;;;;5094751;28;20414;-81
2020/12/18 11:14:14;;;;;;;120.25;72.85;;;5.90;99.90;;;;;;5076456;28;20372;-82
2020/12/18 11:16:40;;;;;;;109.28;61.22;;;6.00;99.90;;;;;;5075832;28;20391;-82
2020/12/18 11:19:06;;;;;;;163.32;105.60;;;6.10;99.90;;;;;;5075856;28;20852;-81
2020/12/18 11:21:32;;;;;;;124.05;73.63;;;6.10;99.90;;;;;;5093536;28;20374;-80
2020/12/18 11:23:58;;;;;;;121.68;67.00;;;6.00;99.90;;;;;;5093999;28;20918;-82
2020/12/18 11:26:25;;;;;;;166.10;102.60;;;6.00;99.90;;;;;;5075970;28;20376;-80
2020/12/18 11:28:51;;;;;;;175.80;120.80;;;6.10;99.90;;;;;;5094482;28;20828;-83
2020/12/18 11:31:17;;;;;;;138.25;85.15;;;6.10;99.90;;;;;;5076158;28;20396;-82
2020/12/18 11:33:43;;;;;;;123.33;71.20;;;6.10;99.90;;;;;;5075155;28;20898;-82
2020/12/18 11:36:09;;;;;;;132.20;80.22;;;6.20;99.90;;;;;;5094212;28;21244;-82
2020/12/18 11:38:35;;;;;;;202.85;131.95;;;6.20;99.90;;;;;;5094273;28;20471;-82
2020/12/18 11:41:01;;;;;;;197.05;112.90;;;6.20;99.90;;;;;;5075977;28;20419;-83
2020/12/18 11:43:27;;;;;;;240.63;124.47;;;6.30;99.90;;;;;;5075861;28;20529;-80
2020/12/18 11:45:53;;;;;;;230.18;125.72;;;6.40;99.90;;;;;;5094007;28;20365;-82
2020/12/18 11:48:19;;;;;;;165.63;91.27;;;6.30;99.90;;;;;;5075984;28;20750;-81
2020/12/18 11:50:46;;;;;;;163.43;93.87;;;6.40;99.90;;;;;;5075855;28;20839;-83
2020/12/18 11:53:12;;;;;;;116.10;65.38;;;6.40;99.90;;;;;;5075904;28;20375;-82
2020/12/18 11:55:38;;;;;;;117.78;66.32;;;6.40;99.90;;;;;;5093932;28;20369;-82
2020/12/18 11:58:04;;;;;;;119.18;65.15;;;6.30;99.90;;;;;;5093864;28;20451;-82
2020/12/18 12:00:31;;;;;;;357.88;182.77;;;6.40;99.90;;;;;;5093433;28;20396;-86
2020/12/18 12:02:56;;;;;;;456.60;241.00;;;6.40;99.90;;;;;;5093129;28;20430;-79
2020/12/18 12:05:24;;;;;;;444.73;227.63;;;6.70;99.90;;;;;;5093965;28;20392;-79
2020/12/18 12:07:50;;;;;;;437.13;224.02;;;6.70;99.90;;;;;;5093786;28;20353;-79
2020/12/18 12:10:18;;;;;;;405.80;202.80;;;6.80;99.90;;;;;;5075451;28;20421;-79
2020/12/18 12:12:47;;;;;;;346.08;165.18;;;6.70;99.90;;;;;;5093430;28;20389;-79
2020/12/18 12:15:16;;;;;;;152.00;83.75;;;6.70;99.90;;;;;;5073888;28;20773;-78
2020/12/18 12:17:42;;;;;;;140.75;80.72;;;6.60;99.90;;;;;;5093381;28;20364;-79
2020/12/18 12:20:08;;;;;;;415.20;213.10;;;6.60;99.90;;;;;;5075175;28;20375;-79
2020/12/18 12:22:34;;;;;;;223.87;117.30;;;6.50;99.90;;;;;;5093333;28;20859;-79
2020/12/18 12:25:00;;;;;;;160.70;90.40;;;6.50;99.90;;;;;;5093227;28;20372;-78
2020/12/18 12:27:26;;;;;;;159.85;97.47;;;6.50;99.90;;;;;;5093071;28;20368;-79
2020/12/18 12:29:53;;;;;;;136.93;78.07;;;6.50;99.90;;;;;;5074881;28;20425;-84